METAR Data
IDs: Format: Raw Decoded Include TAF

Data at: 0338 UTC 06 Dec 2019

METAR for:KIFA (Iowa Falls Muni, IA, US)
Text:KIFA 060335Z AUTO 33017G21KT 10SM CLR 01/M02 A3003 RMK AO2 T00101020
Temperature: 1.0°C ( 34°F)
Dewpoint: -2.0°C ( 28°F) [RH = 80%]
Pressure (altimeter):30.03 inches Hg (1017.0 mb)
Winds:from the NNW (330 degrees) at 20 MPH (17 knots; 8.7 m/s) gusting to 24 MPH (21 knots; 10.8 m/s)
Visibility:10 or more sm (16+ km)
Ceiling:at least 12,000 feet AGL
Clouds:sky clear below 12,000 feet AGL
QC Flag:automated observation with no human augmentation